Sheridan, Illinois
Current Conditions -  °F | °C
As of 5:15 AM on Tuesday 21 Oct 2014 (Local Time) from KC09 Reporting Station
Overcast Overcast  
Wind Chill: 46°   Ceiling: 4400
Heat Index: 46°   Visibility: 10mi
Dew Point: 44°   Wind: 3mph
Humidity: 92%   Direction: 320°NW
Pressure: 30.05"   Gusts: NA
Location:  41.53°N, 88.68°W
Report Text: KC09 211015Z AUTO 32003KT 10SM OVC044 08/07 A3005 RMK AO2 T00780066
Loading
Personal Weather Stations






























Interactive Weather Map
Tropical Storm Tracking
New forecast layout! Learn more

10-Day Weather Forecast

Advertisements
Track Severe Weather on mobile